EW1107 Weather Reports


Display with metric or nautical units.
time (UTC)temp
F
wind
direction
speed
MPH
gust
MPH
rain 1hr
in
rain 24hr
in
rain mn
in
humidity
%
barometer
mb
20181217054554 24 135 0.0 5.0 0.00 0.00 0.00 91 1019.3
20181217053045 25 146 2.0 5.0 0.00 0.00 0.00 91 1019.4
20181217051535 25 143 1.0 7.0 0.00 0.00 0.00 91 1019.4
20181217050031 25 156 2.0 9.0 0.00 0.00 0.00 91 1019.3
20181217043046 25 148 1.0 7.0 0.00 0.00 0.00 91 1019.2
20181217041528 25 128 2.0 7.0 0.00 0.00 0.00 91 1019.3
20181217040104 25 132 2.0 9.0 0.00 0.01 0.00 91 1019.3
20181217034531 25 138 2.0 7.0 0.00 0.01 0.00 91 1019.3
20181217033122 25 140 3.0 7.0 0.00 0.01 0.00 90 1019.0
20181217031607 25 145 2.0 5.0 0.00 0.01 0.00 90 1018.9
20181217030045 26 153 3.0 8.0 0.00 0.02 0.00 90 1019.0
20181217024604 26 155 2.0 8.0 0.00 0.02 0.00 90 1019.0
20181217023101 26 127 4.0 9.0 0.00 0.02 0.00 89 1019.0
20181217021528 26 140 5.0 12.0 0.00 0.02 0.00 89 1019.0
20181217020035 26 134 5.0 12.0 0.00 0.02 0.00 88 1019.2
20181217014551 27 159 3.0 10.0 0.00 0.02 0.00 88 1019.2
20181217013033 27 146 1.0 9.0 0.00 0.02 0.00 87 1019.1
20181217011505 27 130 2.0 10.0 0.00 0.02 0.00 86 1019.3
20181217010142 27 150 5.0 11.0 0.00 0.02 0.00 86 1019.5
20181217004624 28 155 1.0 6.0 0.00 0.02 0.00 85 1019.4
20181217003147 28 132 2.0 13.0 0.00 0.02 0.00 84 1019.3
20181217001611 28 123 2.0 9.0 0.00 0.02 0.00 85 1019.3
20181217000119 28 135 3.0 8.0 0.00 0.03 0.00 85 1019.3
20181216234609 28 130 0.0 4.0 0.00 0.03 0.00 84 1019.3
20181216233139 28 150 0.0 8.0 0.00 0.03 0.00 84 1019.3
20181216231610 28 144 1.0 9.0 0.00 0.03 0.00 84 1019.4
20181216230139 28 128 1.0 5.0 0.00 0.03 0.03 85 1019.5
20181216224604 28 127 1.0 4.0 0.00 0.03 0.03 85 1019.5
20181216223201 28 121 0.0 3.0 0.00 0.03 0.03 85 1019.4
20181216221614 28 120 1.0 4.0 0.00 0.03 0.03 84 1019.3
20181216220115 28 161 0.0 4.0 0.00 0.03 0.03 84 1019.5
20181216214744 28 178 0.0 5.0 0.00 0.03 0.03 84 1019.6
20181216213120 28 191 3.0 10.0 0.00 0.03 0.03 85 1019.5
20181216211611 29 159 4.0 10.0 0.00 0.03 0.03 86 1019.4
20181216210044 29 145 2.0 9.0 0.00 0.03 0.03 86 1019.2
20181216204549 29 173 2.0 7.0 0.00 0.03 0.03 87 1019.2
20181216203045 29 153 1.0 4.0 0.00 0.03 0.03 88 1019.1
20181216201551 29 148 2.0 6.0 0.00 0.03 0.03 89 1019.1
20181216200105 29 175 0.0 5.0 0.00 0.03 0.03 90 1018.8
20181216194636 29 162 0.0 3.0 0.00 0.03 0.03 91 1018.7
20181216193102 29 157 0.0 5.0 0.00 0.03 0.03 91 1018.6
20181216191546 29 136 2.0 7.0 0.00 0.03 0.03 91 1018.7
20181216190042 29 169 1.0 5.0 0.00 0.03 0.03 91 1018.8
20181216184553 29 155 1.0 5.0 0.00 0.03 0.03 92 1018.9
20181216183116 29 169 1.0 5.0 0.00 0.03 0.03 92 1018.9
20181216181558 29 163 0.0 3.0 0.00 0.03 0.03 92 1018.9
20181216180035 29 162 1.0 5.0 0.00 0.03 0.03 92 1018.8
20181216174556 29 151 0.0 5.0 0.00 0.03 0.03 92 1018.8
20181216173105 29 154 0.0 3.0 0.00 0.03 0.03 92 1018.8
20181216171536 28 158 0.0 3.0 0.00 0.03 0.03 92 1018.6
20181216170100 28 158 1.0 4.0 0.00 0.03 0.03 91 1018.5
20181216164623 29 159 0.0 3.0 0.00 0.03 0.03 91 1018.4
20181216163044 29 165 0.0 4.0 0.00 0.03 0.03 91 1018.5
20181216161604 29 164 0.0 4.0 0.00 0.03 0.03 91 1018.4
20181216160107 29 178 1.0 4.0 0.00 0.03 0.03 91 1018.4
20181216154557 29 154 1.0 4.0 0.00 0.03 0.03 91 1018.3
20181216153025 29 150 1.0 3.0 0.00 0.03 0.03 91 1018.2
20181216151533 29 167 0.0 2.0 0.00 0.03 0.03 91 1018.1
20181216150113 29 173 2.0 7.0 0.00 0.03 0.03 91 1018.1
20181216144527 29 167 2.0 7.0 0.00 0.03 0.03 91 1018.1
20181216143038 29 155 1.0 6.0 0.00 0.03 0.03 91 1017.9
20181216141526 29 154 1.0 7.0 0.00 0.03 0.03 91 1017.8
20181216140039 29 156 2.0 6.0 0.00 0.03 0.03 90 1017.7
20181216134535 29 144 2.0 5.0 0.00 0.03 0.03 91 1017.7
20181216133043 29 145 1.0 5.0 0.00 0.03 0.03 91 1017.7
20181216131523 29 172 3.0 6.0 0.00 0.03 0.03 91 1017.9
20181216130048 29 143 0.0 3.0 0.00 0.03 0.03 91 1017.8
20181216124532 29 137 1.0 5.0 0.00 0.03 0.03 90 1017.9
20181216123057 29 150 0.0 4.0 0.00 0.03 0.03 90 1018.0
20181216121522 29 173 2.0 8.0 0.00 0.03 0.03 90 1018.0
20181216120026 29 147 5.0 8.0 0.00 0.03 0.03 90 1018.0
20181216114522 29 147 2.0 7.0 0.00 0.03 0.03 90 1018.1
20181216113018 29 130 2.0 7.0 0.00 0.03 0.03 90 1018.0
20181216111516 29 144 2.0 8.0 0.00 0.03 0.03 90 1018.0
20181216110031 29 134 2.0 11.0 0.00 0.03 0.03 90 1018.2
20181216104506 29 140 3.0 7.0 0.00 0.03 0.03 90 1018.4
20181216103003 29 152 1.0 5.0 0.00 0.03 0.03 90 1018.7
20181216101658 29 144 4.0 8.0 0.00 0.03 0.03 90 1018.9
20181216100127 29 142 1.0 8.0 0.00 0.03 0.03 90 1019.1
20181216094707 29 109 2.0 7.0 0.00 0.03 0.03 90 1019.2
20181216093209 29 152 3.0 9.0 0.00 0.03 0.03 90 1019.3
20181216091724 29 172 3.0 9.0 0.00 0.03 0.03 90 1019.3
20181216090120 29 126 2.0 11.0 0.00 0.03 0.03 90 1019.3
20181216084631 29 109 2.0 9.0 0.00 0.03 0.03 90 1019.2
20181216083111 29 134 1.0 9.0 0.00 0.03 0.03 91 1019.2
20181216081649 29 130 1.0 8.0 0.00 0.03 0.03 91 1019.3
20181216080152 29 114 1.0 6.0 0.00 0.03 0.03 91 1019.2
20181216074652 28 88 2.0 6.0 0.00 0.03 0.03 91 1019.3
20181216073140 28 91 3.0 7.0 0.00 0.03 0.03 91 1019.3
20181216071618 28 111 3.0 8.0 0.00 0.03 0.03 91 1019.4
20181216070104 28 101 2.0 9.0 0.00 0.03 0.03 92 1019.3
20181216064700 28 78 3.0 10.0 0.00 0.03 0.03 92 1019.4
20181216063123 28 25 1.0 7.0 0.00 0.03 0.03 92 1019.3
20181216061655 28 105 2.0 9.0 0.00 0.03 0.03 92 1019.4
20181216060215 28 74 1.0 7.0 0.00 0.03 0.03 92 1019.3